Terminal Aerodrome Forecast
Issued by NWS Grand Forks, ND

Home | Current Version | Previous Version | Graphics & Text | Print | Product List | Glossary On
Versions: 1 2 3 4 5 6 7 8 9 10 11 12 13 14 15 16 17
079
FTUS43 KFGF 211731
TAFFAR
TAF
KFAR 211731Z 2118/2218 36006KT 3SM BR BKN005
     FM211900 01007KT P6SM SCT010 BKN130
     FM220800 01007KT P6SM BKN025
     FM221100 01008KT P6SM BKN015 OVC020=

USA.gov is the U.S. government's official web portal to all federal, state and local government web resources and services.